sensor_id;sensor_type;location;lat;lon;timestamp;pressure;altitude;pressure_sealevel;temperature;humidity
10474;BME280;5284;50.446;7.904;2023-02-19T00:00:36;98689.44;;;8.32;100.00
10474;BME280;5284;50.446;7.904;2023-02-19T00:05:40;98705.38;;;8.32;100.00
10474;BME280;5284;50.446;7.904;2023-02-19T00:10:43;98715.03;;;8.33;100.00
10474;BME280;5284;50.446;7.904;2023-02-19T00:15:46;98685.72;;;8.34;100.00
10474;BME280;5284;50.446;7.904;2023-02-19T00:20:50;98693.69;;;8.34;100.00
10474;BME280;5284;50.446;7.904;2023-02-19T00:25:53;98694.56;;;8.35;100.00
10474;BME280;5284;50.446;7.904;2023-02-19T00:31:05;98684.97;;;8.32;100.00
10474;BME280;5284;50.446;7.904;2023-02-19T00:36:09;98697.41;;;8.32;100.00
10474;BME280;5284;50.446;7.904;2023-02-19T00:41:13;98683.28;;;8.31;100.00
10474;BME280;5284;50.446;7.904;2023-02-19T00:46:24;98680.88;;;8.28;100.00
10474;BME280;5284;50.446;7.904;2023-02-19T00:51:30;98677.13;;;8.31;100.00
10474;BME280;5284;50.446;7.904;2023-02-19T00:56:34;98676.28;;;8.30;100.00
10474;BME280;5284;50.446;7.904;2023-02-19T01:01:36;98667.44;;;8.30;100.00
10474;BME280;5284;50.446;7.904;2023-02-19T01:06:41;98673.63;;;8.30;100.00
10474;BME280;5284;50.446;7.904;2023-02-19T01:11:44;98668.19;;;8.32;100.00
10474;BME280;5284;50.446;7.904;2023-02-19T01:16:47;98668.09;;;8.33;100.00
10474;BME280;5284;50.446;7.904;2023-02-19T01:21:51;98660.34;;;8.30;100.00
10474;BME280;5284;50.446;7.904;2023-02-19T01:26:53;98645.59;;;8.26;100.00
10474;BME280;5284;50.446;7.904;2023-02-19T01:31:56;98648.25;;;8.26;100.00
10474;BME280;5284;50.446;7.904;2023-02-19T01:37:00;98650.03;;;8.26;100.00
10474;BME280;5284;50.446;7.904;2023-02-19T01:42:04;98647.38;;;8.26;100.00
10474;BME280;5284;50.446;7.904;2023-02-19T01:47:07;98643.03;;;8.25;100.00
10474;BME280;5284;50.446;7.904;2023-02-19T01:52:13;98634.09;;;8.26;100.00
10474;BME280;5284;50.446;7.904;2023-02-19T01:57:19;98642.94;;;8.26;100.00
10474;BME280;5284;50.446;7.904;2023-02-19T02:02:24;98643.78;;;8.27;100.00
10474;BME280;5284;50.446;7.904;2023-02-19T02:07:30;98637.63;;;8.26;100.00
10474;BME280;5284;50.446;7.904;2023-02-19T02:12:55;98628.69;;;8.27;100.00
10474;BME280;5284;50.446;7.904;2023-02-19T02:18:05;98634.09;;;8.26;100.00
10474;BME280;5284;50.446;7.904;2023-02-19T02:23:19;98636.91;;;8.24;100.00
10474;BME280;5284;50.446;7.904;2023-02-19T02:28:39;98626.28;;;8.24;100.00
10474;BME280;5284;50.446;7.904;2023-02-19T02:33:56;98617.56;;;8.22;100.00
10474;BME280;5284;50.446;7.904;2023-02-19T02:39:01;98610.56;;;8.21;100.00
10474;BME280;5284;50.446;7.904;2023-02-19T02:44:09;98614.19;;;8.20;100.00
10474;BME280;5284;50.446;7.904;2023-02-19T02:49:18;98594.63;;;8.21;100.00
10474;BME280;5284;50.446;7.904;2023-02-19T02:54:26;98601.19;;;8.16;100.00
10474;BME280;5284;50.446;7.904;2023-02-19T02:59:50;98618.19;;;8.13;100.00
10474;BME280;5284;50.446;7.904;2023-02-19T03:05:03;98611.19;;;8.12;100.00
10474;BME280;5284;50.446;7.904;2023-02-19T03:10:27;98612.16;;;8.11;100.00
10474;BME280;5284;50.446;7.904;2023-02-19T03:15:38;98621.06;;;8.10;100.00
10474;BME280;5284;50.446;7.904;2023-02-19T03:21:03;98611.91;;;8.14;100.00
10474;BME280;5284;50.446;7.904;2023-02-19T03:26:07;98617.06;;;8.17;100.00
10474;BME280;5284;50.446;7.904;2023-02-19T03:31:18;98614.91;;;8.22;100.00
10474;BME280;5284;50.446;7.904;2023-02-19T03:36:27;98615.97;;;8.20;100.00
10474;BME280;5284;50.446;7.904;2023-02-19T03:41:35;98613.22;;;8.21;100.00
10474;BME280;5284;50.446;7.904;2023-02-19T03:46:41;98608.97;;;8.19;100.00
10474;BME280;5284;50.446;7.904;2023-02-19T03:51:50;98612.06;;;8.13;100.00
10474;BME280;5284;50.446;7.904;2023-02-19T03:57:01;98616.00;;;8.07;100.00
10474;BME280;5284;50.446;7.904;2023-02-19T04:02:09;98615.91;;;8.09;100.00
10474;BME280;5284;50.446;7.904;2023-02-19T04:07:14;98606.09;;;8.09;100.00
10474;BME280;5284;50.446;7.904;2023-02-19T04:19:04;98621.06;;;8.10;100.00
10474;BME280;5284;50.446;7.904;2023-02-19T04:24:12;98635.22;;;8.11;100.00
10474;BME280;5284;50.446;7.904;2023-02-19T04:29:16;98625.44;;;8.11;100.00
10474;BME280;5284;50.446;7.904;2023-02-19T04:34:18;98627.97;;;8.13;100.00
10474;BME280;5284;50.446;7.904;2023-02-19T04:39:23;98643.91;;;8.13;100.00
10474;BME280;5284;50.446;7.904;2023-02-19T04:44:25;98658.75;;;8.15;100.00
10474;BME280;5284;50.446;7.904;2023-02-19T04:49:28;98657.50;;;8.21;100.00
10474;BME280;5284;50.446;7.904;2023-02-19T04:54:32;98668.13;;;8.21;100.00
10474;BME280;5284;50.446;7.904;2023-02-19T04:59:35;98660.31;;;8.19;100.00
10474;BME280;5284;50.446;7.904;2023-02-19T05:04:38;98673.44;;;8.21;100.00
10474;BME280;5284;50.446;7.904;2023-02-19T05:09:42;98676.97;;;8.21;100.00
10474;BME280;5284;50.446;7.904;2023-02-19T05:14:45;98661.03;;;8.21;100.00
10474;BME280;5284;50.446;7.904;2023-02-19T05:19:48;98671.75;;;8.20;100.00
10474;BME280;5284;50.446;7.904;2023-02-19T05:24:52;98677.06;;;8.20;100.00
10474;BME280;5284;50.446;7.904;2023-02-19T05:29:55;98684.72;;;8.24;100.00
10474;BME280;5284;50.446;7.904;2023-02-19T05:34:58;98676.84;;;8.23;100.00
10474;BME280;5284;50.446;7.904;2023-02-19T05:40:02;98692.03;;;8.21;100.00
10474;BME280;5284;50.446;7.904;2023-02-19T05:45:06;98689.38;;;8.21;100.00
10474;BME280;5284;50.446;7.904;2023-02-19T05:50:09;98699.19;;;8.20;100.00
10474;BME280;5284;50.446;7.904;2023-02-19T05:55:13;98697.88;;;8.26;100.00
10474;BME280;5284;50.446;7.904;2023-02-19T06:00:17;98701.25;;;8.28;100.00
10474;BME280;5284;50.446;7.904;2023-02-19T06:05:21;98711.66;;;8.31;100.00
10474;BME280;5284;50.446;7.904;2023-02-19T06:10:25;98728.22;;;8.34;100.00
10474;BME280;5284;50.446;7.904;2023-02-19T06:15:28;98723.78;;;8.35;100.00
10474;BME280;5284;50.446;7.904;2023-02-19T06:20:31;98725.47;;;8.36;100.00
10474;BME280;5284;50.446;7.904;2023-02-19T06:25:35;98735.47;;;8.32;100.00
10474;BME280;5284;50.446;7.904;2023-02-19T06:30:38;98741.63;;;8.33;100.00
10474;BME280;5284;50.446;7.904;2023-02-19T06:35:41;98743.44;;;8.32;100.00
10474;BME280;5284;50.446;7.904;2023-02-19T06:40:45;98748.00;;;8.30;100.00
10474;BME280;5284;50.446;7.904;2023-02-19T06:45:48;98752.38;;;8.31;100.00
10474;BME280;5284;50.446;7.904;2023-02-19T06:50:51;98757.91;;;8.28;100.00
10474;BME280;5284;50.446;7.904;2023-02-19T06:55:57;98756.63;;;8.34;100.00
10474;BME280;5284;50.446;7.904;2023-02-19T07:01:00;98770.00;;;8.32;100.00
10474;BME280;5284;50.446;7.904;2023-02-19T07:06:04;98770.84;;;8.33;100.00
10474;BME280;5284;50.446;7.904;2023-02-19T07:11:08;98779.66;;;8.33;100.00
10474;BME280;5284;50.446;7.904;2023-02-19T07:16:12;98785.72;;;8.35;100.00
10474;BME280;5284;50.446;7.904;2023-02-19T07:21:16;98811.47;;;8.35;100.00
10474;BME280;5284;50.446;7.904;2023-02-19T07:26:21;98808.81;;;8.35;100.00
10474;BME280;5284;50.446;7.904;2023-02-19T07:31:24;98825.34;;;8.38;100.00
10474;BME280;5284;50.446;7.904;2023-02-19T07:36:27;98833.75;;;8.45;100.00
10474;BME280;5284;50.446;7.904;2023-02-19T07:41:31;98838.53;;;8.52;100.00
10474;BME280;5284;50.446;7.904;2023-02-19T07:46:34;98847.97;;;8.56;100.00
10474;BME280;5284;50.446;7.904;2023-02-19T07:51:37;98851.22;;;8.60;100.00
10474;BME280;5284;50.446;7.904;2023-02-19T07:56:41;98857.59;;;8.70;100.00
10474;BME280;5284;50.446;7.904;2023-02-19T08:01:44;98868.63;;;8.76;100.00
10474;BME280;5284;50.446;7.904;2023-02-19T08:07:05;98878.66;;;8.73;100.00
10474;BME280;5284;50.446;7.904;2023-02-19T08:12:09;98882.66;;;8.78;100.00
10474;BME280;5284;50.446;7.904;2023-02-19T08:17:30;98883.06;;;8.85;100.00
10474;BME280;5284;50.446;7.904;2023-02-19T08:22:33;98891.28;;;8.82;100.00
10474;BME280;5284;50.446;7.904;2023-02-19T08:27:38;98904.44;;;8.83;100.00
10474;BME280;5284;50.446;7.904;2023-02-19T08:32:40;98908.16;;;8.93;100.00
10474;BME280;5284;50.446;7.904;2023-02-19T08:37:43;98918.56;;;8.96;100.00
10474;BME280;5284;50.446;7.904;2023-02-19T08:42:47;98918.66;;;8.95;100.00
10474;BME280;5284;50.446;7.904;2023-02-19T08:47:50;98922.06;;;8.97;100.00
10474;BME280;5284;50.446;7.904;2023-02-19T08:52:53;98935.38;;;8.84;100.00
10474;BME280;5284;50.446;7.904;2023-02-19T08:57:57;98950.00;;;8.66;100.00
10474;BME280;5284;50.446;7.904;2023-02-19T09:03:00;98969.81;;;8.50;100.00
10474;BME280;5284;50.446;7.904;2023-02-19T09:08:03;98972.78;;;8.45;100.00
10474;BME280;5284;50.446;7.904;2023-02-19T09:13:07;98959.69;;;8.42;100.00
10474;BME280;5284;50.446;7.904;2023-02-19T09:18:09;98965.56;;;8.35;100.00
10474;BME280;5284;50.446;7.904;2023-02-19T09:23:12;98961.72;;;8.26;100.00
10474;BME280;5284;50.446;7.904;2023-02-19T09:28:17;98978.19;;;8.31;100.00
10474;BME280;5284;50.446;7.904;2023-02-19T09:33:19;98975.34;;;8.34;100.00
10474;BME280;5284;50.446;7.904;2023-02-19T09:38:22;98980.13;;;8.29;100.00
10474;BME280;5284;50.446;7.904;2023-02-19T09:43:27;98989.78;;;8.30;100.00
10474;BME280;5284;50.446;7.904;2023-02-19T09:48:31;98997.84;;;8.29;100.00
10474;BME280;5284;50.446;7.904;2023-02-19T09:53:39;99015.63;;;8.28;100.00
10474;BME280;5284;50.446;7.904;2023-02-19T09:58:46;99022.84;;;8.39;100.00
10474;BME280;5284;50.446;7.904;2023-02-19T10:03:50;99037.28;;;8.47;100.00
10474;BME280;5284;50.446;7.904;2023-02-19T10:08:56;99037.41;;;8.46;100.00
10474;BME280;5284;50.446;7.904;2023-02-19T10:14:05;99042.00;;;8.56;100.00
10474;BME280;5284;50.446;7.904;2023-02-19T10:19:10;99057.28;;;8.53;100.00
10474;BME280;5284;50.446;7.904;2023-02-19T10:24:19;99066.00;;;8.55;100.00
10474;BME280;5284;50.446;7.904;2023-02-19T10:29:24;99079.41;;;8.66;100.00
10474;BME280;5284;50.446;7.904;2023-02-19T10:34:27;99079.41;;;8.66;100.00
10474;BME280;5284;50.446;7.904;2023-02-19T10:39:38;99087.94;;;8.96;100.00
10474;BME280;5284;50.446;7.904;2023-02-19T10:44:46;99092.41;;;9.07;100.00
10474;BME280;5284;50.446;7.904;2023-02-19T10:49:52;99097.44;;;9.48;100.00
10474;BME280;5284;50.446;7.904;2023-02-19T10:55:13;99090.00;;;9.53;100.00
10474;BME280;5284;50.446;7.904;2023-02-19T11:00:22;99104.13;;;9.66;100.00
10474;BME280;5284;50.446;7.904;2023-02-19T11:25:43;99144.00;;;9.05;100.00
10474;BME280;5284;50.446;7.904;2023-02-19T11:30:47;99128.34;;;9.25;100.00
10474;BME280;5284;50.446;7.904;2023-02-19T11:35:52;99140.91;;;9.36;100.00
10474;BME280;5284;50.446;7.904;2023-02-19T11:41:07;99140.47;;;9.29;100.00
10474;BME280;5284;50.446;7.904;2023-02-19T11:46:20;99141.56;;;9.27;100.00
10474;BME280;5284;50.446;7.904;2023-02-19T11:51:53;99137.81;;;9.29;100.00
10474;BME280;5284;50.446;7.904;2023-02-19T11:57:07;99130.06;;;9.26;100.00
10474;BME280;5284;50.446;7.904;2023-02-19T12:02:26;99140.91;;;9.11;100.00
10474;BME280;5284;50.446;7.904;2023-02-19T12:13:16;99137.19;;;9.26;100.00
10474;BME280;5284;50.446;7.904;2023-02-19T12:18:52;99131.34;;;9.21;100.00
10474;BME280;5284;50.446;7.904;2023-02-19T12:24:14;99146.53;;;9.31;100.00
10474;BME280;5284;50.446;7.904;2023-02-19T12:29:40;99138.69;;;9.30;100.00
10474;BME280;5284;50.446;7.904;2023-02-19T12:35:08;99122.72;;;9.42;100.00
10474;BME280;5284;50.446;7.904;2023-02-19T12:40:43;99118.66;;;9.37;100.00
10474;BME280;5284;50.446;7.904;2023-02-19T12:45:54;99109.72;;;9.38;100.00
10474;BME280;5284;50.446;7.904;2023-02-19T12:51:04;99110.41;;;9.65;100.00
10474;BME280;5284;50.446;7.904;2023-02-19T12:56:12;99123.28;;;9.71;100.00
10474;BME280;5284;50.446;7.904;2023-02-19T13:01:22;99124.63;;;9.89;100.00
10474;BME280;5284;50.446;7.904;2023-02-19T13:06:32;99131.69;;;9.77;100.00
10474;BME280;5284;50.446;7.904;2023-02-19T13:11:41;99130.78;;;9.89;100.00
10474;BME280;5284;50.446;7.904;2023-02-19T13:16:49;99138.13;;;9.86;100.00
10474;BME280;5284;50.446;7.904;2023-02-19T13:22:01;99148.75;;;9.98;100.00
10474;BME280;5284;50.446;7.904;2023-02-19T13:33:02;99140.75;;;10.11;100.00
10474;BME280;5284;50.446;7.904;2023-02-19T13:38:09;99150.28;;;10.26;100.00
10474;BME280;5284;50.446;7.904;2023-02-19T13:43:22;99152.94;;;9.90;100.00
10474;BME280;5284;50.446;7.904;2023-02-19T13:48:30;99153.94;;;9.76;100.00
10474;BME280;5284;50.446;7.904;2023-02-19T13:53:54;99171.13;;;9.47;100.00
10474;BME280;5284;50.446;7.904;2023-02-19T13:59:18;99177.00;;;9.40;100.00
10474;BME280;5284;50.446;7.904;2023-02-19T14:04:42;99177.53;;;9.45;100.00
10474;BME280;5284;50.446;7.904;2023-02-19T14:09:48;99176.38;;;9.36;100.00
10474;BME280;5284;50.446;7.904;2023-02-19T14:14:51;99175.59;;;9.47;100.00
10474;BME280;5284;50.446;7.904;2023-02-19T14:19:58;99165.03;;;9.70;100.00
10474;BME280;5284;50.446;7.904;2023-02-19T14:25:03;99174.22;;;10.02;100.00
10474;BME280;5284;50.446;7.904;2023-02-19T14:30:10;99174.56;;;9.98;100.00
10474;BME280;5284;50.446;7.904;2023-02-19T14:35:18;99172.75;;;9.86;100.00
10474;BME280;5284;50.446;7.904;2023-02-19T14:40:24;99188.63;;;10.12;100.00
10474;BME280;5284;50.446;7.904;2023-02-19T14:45:33;99196.41;;;10.03;100.00
10474;BME280;5284;50.446;7.904;2023-02-19T14:50:40;99187.88;;;9.98;100.00
10474;BME280;5284;50.446;7.904;2023-02-19T14:55:45;99187.25;;;9.82;100.00
10474;BME280;5284;50.446;7.904;2023-02-19T15:00:49;99197.94;;;9.69;100.00
10474;BME280;5284;50.446;7.904;2023-02-19T15:05:55;99218.41;;;9.69;100.00
10474;BME280;5284;50.446;7.904;2023-02-19T15:11:01;99223.28;;;9.62;100.00
10474;BME280;5284;50.446;7.904;2023-02-19T15:16:06;99238.97;;;9.54;100.00
10474;BME280;5284;50.446;7.904;2023-02-19T15:21:20;99229.06;;;9.31;100.00
10474;BME280;5284;50.446;7.904;2023-02-19T15:26:30;99235.00;;;9.10;100.00
10474;BME280;5284;50.446;7.904;2023-02-19T15:31:33;99232.75;;;9.04;100.00
10474;BME280;5284;50.446;7.904;2023-02-19T15:36:38;99223.78;;;8.93;100.00
10474;BME280;5284;50.446;7.904;2023-02-19T15:41:42;99219.94;;;8.84;100.00
10474;BME280;5284;50.446;7.904;2023-02-19T15:46:45;99212.16;;;8.81;100.00
10474;BME280;5284;50.446;7.904;2023-02-19T15:51:52;99196.53;;;8.77;100.00
10474;BME280;5284;50.446;7.904;2023-02-19T15:57:01;99196.84;;;8.72;100.00
10474;BME280;5284;50.446;7.904;2023-02-19T16:02:08;99192.78;;;8.67;100.00
10474;BME280;5284;50.446;7.904;2023-02-19T16:07:23;99194.34;;;8.57;100.00
10474;BME280;5284;50.446;7.904;2023-02-19T16:12:26;99180.97;;;8.58;100.00
10474;BME280;5284;50.446;7.904;2023-02-19T16:17:29;99182.88;;;8.56;100.00
10474;BME280;5284;50.446;7.904;2023-02-19T16:22:39;99177.81;;;8.39;100.00
10474;BME280;5284;50.446;7.904;2023-02-19T16:27:43;99183.53;;;8.33;100.00
10474;BME280;5284;50.446;7.904;2023-02-19T16:32:46;99194.66;;;8.26;100.00
10474;BME280;5284;50.446;7.904;2023-02-19T16:37:57;99198.78;;;8.17;100.00
10474;BME280;5284;50.446;7.904;2023-02-19T16:43:24;99201.25;;;8.06;100.00
10474;BME280;5284;50.446;7.904;2023-02-19T16:48:27;99190.47;;;7.95;100.00
10474;BME280;5284;50.446;7.904;2023-02-19T16:53:31;99205.84;;;7.90;100.00
10474;BME280;5284;50.446;7.904;2023-02-19T16:58:34;99220.16;;;7.88;100.00
10474;BME280;5284;50.446;7.904;2023-02-19T17:03:40;99231.91;;;7.84;100.00
10474;BME280;5284;50.446;7.904;2023-02-19T17:08:45;99235.53;;;7.83;100.00
10474;BME280;5284;50.446;7.904;2023-02-19T17:13:47;99255.13;;;7.80;100.00
10474;BME280;5284;50.446;7.904;2023-02-19T17:18:50;99268.41;;;7.80;100.00
10474;BME280;5284;50.446;7.904;2023-02-19T17:23:55;99261.22;;;7.82;100.00
10474;BME280;5284;50.446;7.904;2023-02-19T17:28:58;99270.13;;;7.81;100.00
10474;BME280;5284;50.446;7.904;2023-02-19T17:34:01;99267.59;;;7.80;100.00
10474;BME280;5284;50.446;7.904;2023-02-19T17:39:05;99279.16;;;7.79;100.00
10474;BME280;5284;50.446;7.904;2023-02-19T17:44:09;99293.25;;;7.79;100.00
10474;BME280;5284;50.446;7.904;2023-02-19T17:49:12;99314.31;;;7.82;100.00
10474;BME280;5284;50.446;7.904;2023-02-19T17:54:16;99328.66;;;7.80;100.00
10474;BME280;5284;50.446;7.904;2023-02-19T17:59:19;99324.38;;;7.77;100.00
10474;BME280;5284;50.446;7.904;2023-02-19T18:04:22;99332.31;;;7.77;100.00
10474;BME280;5284;50.446;7.904;2023-02-19T18:09:26;99326.25;;;7.75;100.00
10474;BME280;5284;50.446;7.904;2023-02-19T18:14:29;99324.56;;;7.74;100.00
10474;BME280;5284;50.446;7.904;2023-02-19T18:19:32;99323.78;;;7.72;100.00
10474;BME280;5284;50.446;7.904;2023-02-19T18:24:36;99322.09;;;7.71;100.00
10474;BME280;5284;50.446;7.904;2023-02-19T18:29:39;99337.19;;;7.71;100.00
10474;BME280;5284;50.446;7.904;2023-02-19T18:34:42;99337.06;;;7.72;100.00
10474;BME280;5284;50.446;7.904;2023-02-19T18:39:46;99346.94;;;7.70;100.00
10474;BME280;5284;50.446;7.904;2023-02-19T18:44:49;99346.34;;;7.65;100.00
10474;BME280;5284;50.446;7.904;2023-02-19T18:49:55;99335.16;;;7.60;100.00
10474;BME280;5284;50.446;7.904;2023-02-19T18:55:00;99330.22;;;7.54;100.00
10474;BME280;5284;50.446;7.904;2023-02-19T19:00:04;99342.81;;;7.51;100.00
10474;BME280;5284;50.446;7.904;2023-02-19T19:05:07;99343.97;;;7.47;100.00
10474;BME280;5284;50.446;7.904;2023-02-19T19:10:12;99348.56;;;7.44;100.00
10474;BME280;5284;50.446;7.904;2023-02-19T19:15:16;99339.84;;;7.42;100.00
10474;BME280;5284;50.446;7.904;2023-02-19T19:20:21;99340.72;;;7.42;100.00
10474;BME280;5284;50.446;7.904;2023-02-19T19:25:26;99352.28;;;7.41;100.00
10474;BME280;5284;50.446;7.904;2023-02-19T19:30:28;99353.22;;;7.40;100.00
10474;BME280;5284;50.446;7.904;2023-02-19T19:35:31;99352.28;;;7.41;100.00
10474;BME280;5284;50.446;7.904;2023-02-19T19:40:35;99357.66;;;7.40;100.00
10474;BME280;5284;50.446;7.904;2023-02-19T19:45:38;99347.25;;;7.37;100.00
10474;BME280;5284;50.446;7.904;2023-02-19T19:50:41;99353.50;;;7.36;100.00
10474;BME280;5284;50.446;7.904;2023-02-19T19:55:45;99365.03;;;7.35;100.00
10474;BME280;5284;50.446;7.904;2023-02-19T20:00:48;99371.13;;;7.37;100.00
10474;BME280;5284;50.446;7.904;2023-02-19T20:05:51;99373.00;;;7.35;100.00
10474;BME280;5284;50.446;7.904;2023-02-19T20:10:55;99380.19;;;7.33;100.00
10474;BME280;5284;50.446;7.904;2023-02-19T20:15:58;99382.16;;;7.29;100.00
10474;BME280;5284;50.446;7.904;2023-02-19T20:21:01;99392.00;;;7.27;100.00
10474;BME280;5284;50.446;7.904;2023-02-19T20:26:06;99388.78;;;7.22;100.00
10474;BME280;5284;50.446;7.904;2023-02-19T20:31:09;99382.72;;;7.20;100.00
10474;BME280;5284;50.446;7.904;2023-02-19T20:36:13;99386.50;;;7.16;100.00
10474;BME280;5284;50.446;7.904;2023-02-19T20:41:17;99384.78;;;7.15;100.00
10474;BME280;5284;50.446;7.904;2023-02-19T20:46:20;99384.09;;;7.12;100.00
10474;BME280;5284;50.446;7.904;2023-02-19T20:51:23;99395.81;;;7.08;100.00
10474;BME280;5284;50.446;7.904;2023-02-19T20:56:27;99398.56;;;7.06;100.00
10474;BME280;5284;50.446;7.904;2023-02-19T21:01:30;99403.13;;;7.04;100.00
10474;BME280;5284;50.446;7.904;2023-02-19T21:06:32;99405.00;;;7.02;100.00
10474;BME280;5284;50.446;7.904;2023-02-19T21:11:37;99424.41;;;7.03;100.00
10474;BME280;5284;50.446;7.904;2023-02-19T21:16:40;99421.94;;;7.00;100.00
10474;BME280;5284;50.446;7.904;2023-02-19T21:21:43;99428.25;;;6.97;100.00
10474;BME280;5284;50.446;7.904;2023-02-19T21:26:47;99426.72;;;6.93;100.00
10474;BME280;5284;50.446;7.904;2023-02-19T21:31:52;99441.78;;;6.93;100.00
10474;BME280;5284;50.446;7.904;2023-02-19T21:36:56;99440.41;;;7.01;100.00
10474;BME280;5284;50.446;7.904;2023-02-19T21:42:01;99436.13;;;6.99;100.00
10474;BME280;5284;50.446;7.904;2023-02-19T21:47:04;99445.09;;;6.96;100.00
10474;BME280;5284;50.446;7.904;2023-02-19T21:52:07;99441.59;;;6.96;100.00
10474;BME280;5284;50.446;7.904;2023-02-19T21:57:11;99451.28;;;6.97;100.00
10474;BME280;5284;50.446;7.904;2023-02-19T22:02:14;99452.22;;;6.96;100.00
10474;BME280;5284;50.446;7.904;2023-02-19T22:07:20;99449.72;;;6.93;100.00
10474;BME280;5284;50.446;7.904;2023-02-19T22:12:24;99453.41;;;6.90;100.00
10474;BME280;5284;50.446;7.904;2023-02-19T22:17:27;99445.91;;;6.83;100.00
10474;BME280;5284;50.446;7.904;2023-02-19T22:22:30;99443.50;;;6.78;100.00
10474;BME280;5284;50.446;7.904;2023-02-19T22:27:34;99453.66;;;6.70;100.00
10474;BME280;5284;50.446;7.904;2023-02-19T22:32:39;99466.31;;;6.65;100.00
10474;BME280;5284;50.446;7.904;2023-02-19T22:37:42;99459.72;;;6.57;100.00
10474;BME280;5284;50.446;7.904;2023-02-19T22:42:46;99456.47;;;6.52;100.00
10474;BME280;5284;50.446;7.904;2023-02-19T22:47:49;99456.69;;;6.47;100.00
10474;BME280;5284;50.446;7.904;2023-02-19T22:52:51;99462.06;;;6.46;100.00
10474;BME280;5284;50.446;7.904;2023-02-19T22:57:56;99462.00;;;6.47;100.00
10474;BME280;5284;50.446;7.904;2023-02-19T23:02:59;99474.47;;;6.45;100.00
10474;BME280;5284;50.446;7.904;2023-02-19T23:08:02;99482.81;;;6.38;100.00
10474;BME280;5284;50.446;7.904;2023-02-19T23:13:07;99467.50;;;6.27;100.00
10474;BME280;5284;50.446;7.904;2023-02-19T23:18:09;99462.63;;;6.20;100.00
10474;BME280;5284;50.446;7.904;2023-02-19T23:23:12;99470.56;;;6.20;100.00
10474;BME280;5284;50.446;7.904;2023-02-19T23:28:16;99465.50;;;6.15;100.00
10474;BME280;5284;50.446;7.904;2023-02-19T23:33:19;99462.16;;;6.12;100.00
10474;BME280;5284;50.446;7.904;2023-02-19T23:38:22;99449.22;;;6.06;100.00
10474;BME280;5284;50.446;7.904;2023-02-19T23:43:26;99453.16;;;5.99;100.00
10474;BME280;5284;50.446;7.904;2023-02-19T23:48:29;99442.66;;;5.98;100.00
10474;BME280;5284;50.446;7.904;2023-02-19T23:53:32;99443.81;;;5.92;100.00
10474;BME280;5284;50.446;7.904;2023-02-19T23:58:36;99443.88;;;5.91;100.00
